PWSweather.com
Personal Weather Stations
Station Observations
NIPERANCH
Fairview Farms, Krugerville, TX 76227

Fairview FarmsKrugerville, TX 76227

Lat: 33.269689, Lon: -96.99024299999996

Elevation: 661

Station Type: VantageVue

Latest ConditionsUpdated 6:02:39 AM CST Sunday, Jan 20, 2019
Currently Today's Max Today's Min Today's Average
Temperature 24.0°F-4.4°C 29.2°F-1.6°C 23.9°F-4.5°C 26.7°F-2.9°C
Dew Point 20.2°F-6.6°C 22.3°F-5.4°C 19.6°F-6.9°C 21.0°F-6.1°C
Winds Calm Calm 8.0 mph -12.9 kmh - - 2.6 mph 4.2 kmh
Wind Gusts -- 14.0 mph22.5 kmh - -
Humidity 85% 85% 74% 79%
Pressure 30.42 in1030.1 mb 30.44 in1030.8 mb 30.40 in1029.5 mb -
Hour Temp Dew Point Humidity Winds Wind Gusts Pressure Precip Precip Rate Daily Precip Total
06:02 AM 24.0°F-4.4°C 20.2°F-6.6°C 85% Calm Calm -- 30.42 in1030.1 mb 0.00 in0.0 mm 0.00 in0.0 mm 0.00 in0.0 mm
05:57 AM 23.9°F-4.5°C 20.1°F-6.6°C 85% 2.0 mph W3.2 kmh W 2.0 mph3.2 kmh 30.42 in1030.1 mb 0.00 in0.0 mm 0.00 in0.0 mm 0.00 in0.0 mm
05:52 AM 24.0°F-4.4°C 20.2°F-6.6°C 85% Calm Calm 3.0 mph4.8 kmh 30.42 in1030.1 mb 0.00 in0.0 mm 0.00 in0.0 mm 0.00 in0.0 mm
05:47 AM 24.0°F-4.4°C 20.2°F-6.6°C 85% 1.0 mph WSW1.6 kmh WSW 3.0 mph4.8 kmh 30.42 in1030.1 mb 0.00 in0.0 mm 0.00 in0.0 mm 0.00 in0.0 mm
05:42 AM 23.9°F-4.5°C 19.8°F-6.8°C 84% 1.0 mph W1.6 kmh W 1.0 mph1.6 kmh 30.41 in1029.8 mb 0.00 in0.0 mm 0.00 in0.0 mm 0.00 in0.0 mm
05:37 AM 24.0°F-4.4°C 19.6°F-6.9°C 83% Calm Calm -- 30.41 in1029.8 mb 0.00 in0.0 mm 0.00 in0.0 mm 0.00 in0.0 mm
05:32 AM 24.2°F-4.3°C 19.8°F-6.8°C 83% Calm Calm -- 30.40 in1029.5 mb 0.00 in0.0 mm 0.00 in0.0 mm 0.00 in0.0 mm
05:27 AM 24.3°F-4.3°C 19.9°F-6.7°C 83% Calm Calm -- 30.40 in1029.5 mb 0.00 in0.0 mm 0.00 in0.0 mm 0.00 in0.0 mm
05:22 AM 24.5°F-4.2°C 19.8°F-6.8°C 82% Calm Calm 1.0 mph1.6 kmh 30.41 in1029.8 mb 0.00 in0.0 mm 0.00 in0.0 mm 0.00 in0.0 mm
05:17 AM 24.7°F-4.1°C 20.0°F-6.7°C 82% Calm Calm -- 30.40 in1029.5 mb 0.00 in0.0 mm 0.00 in0.0 mm 0.00 in0.0 mm
05:12 AM 25.0°F-3.9°C 20.0°F-6.7°C 81% Calm Calm -- 30.40 in1029.5 mb 0.00 in0.0 mm 0.00 in0.0 mm 0.00 in0.0 mm
05:07 AM 25.1°F-3.8°C 20.4°F-6.4°C 82% Calm Calm 4.0 mph6.4 kmh 30.41 in1029.8 mb 0.00 in0.0 mm 0.00 in0.0 mm 0.00 in0.0 mm
05:02 AM 25.3°F-3.7°C 20.3°F-6.5°C 81% 3.0 mph W4.8 kmh W 4.0 mph6.4 kmh 30.41 in1029.8 mb 0.00 in0.0 mm 0.00 in0.0 mm 0.00 in0.0 mm
04:57 AM 25.3°F-3.7°C 20.3°F-6.5°C 81% 3.0 mph W4.8 kmh W 5.0 mph8.0 kmh 30.41 in1029.8 mb 0.00 in0.0 mm 0.00 in0.0 mm 0.00 in0.0 mm
04:52 AM 25.4°F-3.7°C 20.4°F-6.4°C 81% Calm Calm 5.0 mph8.0 kmh 30.41 in1029.8 mb 0.00 in0.0 mm 0.00 in0.0 mm 0.00 in0.0 mm
04:47 AM 25.4°F-3.7°C 20.4°F-6.4°C 81% 2.0 mph W3.2 kmh W 5.0 mph8.0 kmh 30.41 in1029.8 mb 0.00 in0.0 mm 0.00 in0.0 mm 0.00 in0.0 mm
04:42 AM 25.5°F-3.6°C 20.5°F-6.4°C 81% 2.0 mph NE3.2 kmh NE 5.0 mph8.0 kmh 30.40 in1029.5 mb 0.00 in0.0 mm 0.00 in0.0 mm 0.00 in0.0 mm
04:37 AM 25.5°F-3.6°C 20.5°F-6.4°C 81% 1.0 mph N1.6 kmh N 6.0 mph9.7 kmh 30.41 in1029.8 mb 0.00 in0.0 mm 0.00 in0.0 mm 0.00 in0.0 mm
04:32 AM 25.6°F-3.6°C 20.6°F-6.3°C 81% 1.0 mph N1.6 kmh N 6.0 mph9.7 kmh 30.42 in1030.1 mb 0.00 in0.0 mm 0.00 in0.0 mm 0.00 in0.0 mm
04:27 AM 25.7°F-3.5°C 20.7°F-6.3°C 81% 2.0 mph NW3.2 kmh NW 6.0 mph9.7 kmh 30.42 in1030.1 mb 0.00 in0.0 mm 0.00 in0.0 mm 0.00 in0.0 mm
04:22 AM 25.7°F-3.5°C 20.7°F-6.3°C 81% 5.0 mph N8.0 kmh N 6.0 mph9.7 kmh 30.41 in1029.8 mb 0.00 in0.0 mm 0.00 in0.0 mm 0.00 in0.0 mm
04:17 AM 25.7°F-3.5°C 20.7°F-6.3°C 81% 4.0 mph N6.4 kmh N 5.0 mph8.0 kmh 30.41 in1029.8 mb 0.00 in0.0 mm 0.00 in0.0 mm 0.00 in0.0 mm
04:12 AM 25.8°F-3.4°C 20.8°F-6.2°C 81% 4.0 mph NW6.4 kmh NW 5.0 mph8.0 kmh 30.41 in1029.8 mb 0.00 in0.0 mm 0.00 in0.0 mm 0.00 in0.0 mm
04:07 AM 25.8°F-3.4°C 20.8°F-6.2°C 81% 2.0 mph N3.2 kmh N 5.0 mph8.0 kmh 30.42 in1030.1 mb 0.00 in0.0 mm 0.00 in0.0 mm 0.00 in0.0 mm
04:02 AM 25.9°F-3.4°C 20.9°F-6.2°C 81% Calm Calm 5.0 mph8.0 kmh 30.42 in1030.1 mb 0.00 in0.0 mm 0.00 in0.0 mm 0.00 in0.0 mm
03:57 AM 25.9°F-3.4°C 20.6°F-6.3°C 80% Calm Calm 4.0 mph6.4 kmh 30.43 in1030.5 mb 0.00 in0.0 mm 0.00 in0.0 mm 0.00 in0.0 mm
03:52 AM 26.1°F-3.3°C 20.8°F-6.2°C 80% Calm Calm 6.0 mph9.7 kmh 30.42 in1030.1 mb 0.00 in0.0 mm 0.00 in0.0 mm 0.00 in0.0 mm
03:47 AM 26.1°F-3.3°C 20.8°F-6.2°C 80% 1.0 mph NNW1.6 kmh NNW 6.0 mph9.7 kmh 30.42 in1030.1 mb 0.00 in0.0 mm 0.00 in0.0 mm 0.00 in0.0 mm
03:42 AM 26.3°F-3.2°C 21.0°F-6.1°C 80% 1.0 mph N1.6 kmh N 8.0 mph12.9 kmh 30.42 in1030.1 mb 0.00 in0.0 mm 0.00 in0.0 mm 0.00 in0.0 mm
03:37 AM 26.5°F-3.1°C 21.2°F-6.0°C 80% 1.0 mph NNW1.6 kmh NNW 8.0 mph12.9 kmh 30.42 in1030.1 mb 0.00 in0.0 mm 0.00 in0.0 mm 0.00 in0.0 mm
03:32 AM 26.5°F-3.1°C 20.9°F-6.2°C 79% 5.0 mph N8.0 kmh N 9.0 mph14.5 kmh 30.41 in1029.8 mb 0.00 in0.0 mm 0.00 in0.0 mm 0.00 in0.0 mm
03:27 AM 26.6°F-3.0°C 21.0°F-6.1°C 79% 6.0 mph N9.7 kmh N 9.0 mph14.5 kmh 30.41 in1029.8 mb 0.00 in0.0 mm 0.00 in0.0 mm 0.00 in0.0 mm
03:22 AM 26.6°F-3.0°C 21.0°F-6.1°C 79% 3.0 mph NE4.8 kmh NE 9.0 mph14.5 kmh 30.41 in1029.8 mb 0.00 in0.0 mm 0.00 in0.0 mm 0.00 in0.0 mm
03:17 AM 26.6°F-3.0°C 21.0°F-6.1°C 79% 5.0 mph NNE8.0 kmh NNE 9.0 mph14.5 kmh 30.42 in1030.1 mb 0.00 in0.0 mm 0.00 in0.0 mm 0.00 in0.0 mm
03:12 AM 26.6°F-3.0°C 21.0°F-6.1°C 79% 3.0 mph NNE4.8 kmh NNE 8.0 mph12.9 kmh 30.43 in1030.5 mb 0.00 in0.0 mm 0.00 in0.0 mm 0.00 in0.0 mm
03:07 AM 26.7°F-2.9°C 21.1°F-6.1°C 79% 4.0 mph NNW6.4 kmh NNW 8.0 mph12.9 kmh 30.44 in1030.8 mb 0.00 in0.0 mm 0.00 in0.0 mm 0.00 in0.0 mm
03:02 AM 26.6°F-3.0°C 21.0°F-6.1°C 79% 3.0 mph N4.8 kmh N 8.0 mph12.9 kmh 30.44 in1030.8 mb 0.00 in0.0 mm 0.00 in0.0 mm 0.00 in0.0 mm
02:57 AM 26.7°F-2.9°C 21.1°F-6.1°C 79% 2.0 mph WSW3.2 kmh WSW 5.0 mph8.0 kmh 30.44 in1030.8 mb 0.00 in0.0 mm 0.00 in0.0 mm 0.00 in0.0 mm
02:52 AM 26.7°F-2.9°C 21.1°F-6.1°C 79% 2.0 mph N3.2 kmh N 6.0 mph9.7 kmh 30.44 in1030.8 mb 0.00 in0.0 mm 0.00 in0.0 mm 0.00 in0.0 mm
02:47 AM 26.8°F-2.9°C 21.2°F-6.0°C 79% 4.0 mph NNW6.4 kmh NNW 6.0 mph9.7 kmh 30.43 in1030.5 mb 0.00 in0.0 mm 0.00 in0.0 mm 0.00 in0.0 mm
02:42 AM 26.9°F-2.8°C 21.3°F-5.9°C 79% 5.0 mph NNE8.0 kmh NNE 7.0 mph11.3 kmh 30.44 in1030.8 mb 0.00 in0.0 mm 0.00 in0.0 mm 0.00 in0.0 mm
02:37 AM 26.9°F-2.8°C 21.0°F-6.1°C 78% 2.0 mph NNE3.2 kmh NNE 7.0 mph11.3 kmh 30.43 in1030.5 mb 0.00 in0.0 mm 0.00 in0.0 mm 0.00 in0.0 mm
02:32 AM 27.0°F-2.8°C 21.1°F-6.1°C 78% 3.0 mph NW4.8 kmh NW 7.0 mph11.3 kmh 30.43 in1030.5 mb 0.00 in0.0 mm 0.00 in0.0 mm 0.00 in0.0 mm
02:27 AM 27.1°F-2.7°C 21.2°F-6.0°C 78% 2.0 mph NW3.2 kmh NW 7.0 mph11.3 kmh 30.43 in1030.5 mb 0.00 in0.0 mm 0.00 in0.0 mm 0.00 in0.0 mm
02:22 AM 27.2°F-2.7°C 21.3°F-5.9°C 78% 3.0 mph NW4.8 kmh NW 6.0 mph9.7 kmh 30.43 in1030.5 mb 0.00 in0.0 mm 0.00 in0.0 mm 0.00 in0.0 mm
02:17 AM 27.3°F-2.6°C 21.4°F-5.9°C 78% 1.0 mph WSW1.6 kmh WSW 7.0 mph11.3 kmh 30.42 in1030.1 mb 0.00 in0.0 mm 0.00 in0.0 mm 0.00 in0.0 mm
02:12 AM 27.4°F-2.6°C 21.2°F-6.0°C 77% 3.0 mph N4.8 kmh N 7.0 mph11.3 kmh 30.43 in1030.5 mb 0.00 in0.0 mm 0.00 in0.0 mm 0.00 in0.0 mm
02:07 AM 27.6°F-2.4°C 21.4°F-5.9°C 77% 3.0 mph NNE4.8 kmh NNE 10.0 mph16.1 kmh 30.43 in1030.5 mb 0.00 in0.0 mm 0.00 in0.0 mm 0.00 in0.0 mm
02:02 AM 27.6°F-2.4°C 21.4°F-5.9°C 77% 2.0 mph NW3.2 kmh NW 10.0 mph16.1 kmh 30.43 in1030.5 mb 0.00 in0.0 mm 0.00 in0.0 mm 0.00 in0.0 mm
01:57 AM 27.7°F-2.4°C 21.1°F-6.1°C 76% 4.0 mph N6.4 kmh N 10.0 mph16.1 kmh 30.42 in1030.1 mb 0.00 in0.0 mm 0.00 in0.0 mm 0.00 in0.0 mm
01:52 AM 27.8°F-2.3°C 21.2°F-6.0°C 76% 4.0 mph N6.4 kmh N 10.0 mph16.1 kmh 30.42 in1030.1 mb 0.00 in0.0 mm 0.00 in0.0 mm 0.00 in0.0 mm
01:47 AM 27.9°F-2.3°C 21.3°F-5.9°C 76% 6.0 mph NNW9.7 kmh NNW 10.0 mph16.1 kmh 30.42 in1030.1 mb 0.00 in0.0 mm 0.00 in0.0 mm 0.00 in0.0 mm
01:42 AM 28.0°F-2.2°C 21.4°F-5.9°C 76% 3.0 mph ENE4.8 kmh ENE 11.0 mph17.7 kmh 30.42 in1030.1 mb 0.00 in0.0 mm 0.00 in0.0 mm 0.00 in0.0 mm
01:37 AM 28.0°F-2.2°C 21.4°F-5.9°C 76% 3.0 mph NW4.8 kmh NW 11.0 mph17.7 kmh 30.42 in1030.1 mb 0.00 in0.0 mm 0.00 in0.0 mm 0.00 in0.0 mm
01:32 AM 28.1°F-2.2°C 21.2°F-6.0°C 75% 3.0 mph N4.8 kmh N 11.0 mph17.7 kmh 30.43 in1030.5 mb 0.00 in0.0 mm 0.00 in0.0 mm 0.00 in0.0 mm
01:27 AM 28.1°F-2.2°C 21.2°F-6.0°C 75% 6.0 mph NW9.7 kmh NW 11.0 mph17.7 kmh 30.43 in1030.5 mb 0.00 in0.0 mm 0.00 in0.0 mm 0.00 in0.0 mm
01:22 AM 28.2°F-2.1°C 21.3°F-5.9°C 75% 2.0 mph NW3.2 kmh NW 11.0 mph17.7 kmh 30.42 in1030.1 mb 0.00 in0.0 mm 0.00 in0.0 mm 0.00 in0.0 mm
01:17 AM 28.3°F-2.1°C 21.4°F-5.9°C 75% 4.0 mph NNW6.4 kmh NNW 11.0 mph17.7 kmh 30.43 in1030.5 mb 0.00 in0.0 mm 0.00 in0.0 mm 0.00 in0.0 mm
01:12 AM 28.3°F-2.1°C 21.4°F-5.9°C 75% 2.0 mph N3.2 kmh N 11.0 mph17.7 kmh 30.43 in1030.5 mb 0.00 in0.0 mm 0.00 in0.0 mm 0.00 in0.0 mm
01:07 AM 28.3°F-2.1°C 21.4°F-5.9°C 75% 2.0 mph N3.2 kmh N 13.0 mph20.9 kmh 30.43 in1030.5 mb 0.00 in0.0 mm 0.00 in0.0 mm 0.00 in0.0 mm
01:02 AM 28.5°F-1.9°C 21.6°F-5.8°C 75% 3.0 mph NW4.8 kmh NW 13.0 mph20.9 kmh 30.43 in1030.5 mb 0.00 in0.0 mm 0.00 in0.0 mm 0.00 in0.0 mm
12:57 AM 28.6°F-1.9°C 21.7°F-5.7°C 75% 3.0 mph N4.8 kmh N 13.0 mph20.9 kmh 30.43 in1030.5 mb 0.00 in0.0 mm 0.00 in0.0 mm 0.00 in0.0 mm
12:52 AM 28.6°F-1.9°C 21.7°F-5.7°C 75% 5.0 mph W8.0 kmh W 13.0 mph20.9 kmh 30.43 in1030.5 mb 0.00 in0.0 mm 0.00 in0.0 mm 0.00 in0.0 mm
12:47 AM 28.6°F-1.9°C 21.7°F-5.7°C 75% 8.0 mph NNW12.9 kmh NNW 12.0 mph19.3 kmh 30.44 in1030.8 mb 0.00 in0.0 mm 0.00 in0.0 mm 0.00 in0.0 mm
12:42 AM 28.8°F-1.8°C 21.6°F-5.8°C 74% 1.0 mph NNW1.6 kmh NNW 12.0 mph19.3 kmh 30.43 in1030.5 mb 0.00 in0.0 mm 0.00 in0.0 mm 0.00 in0.0 mm
12:37 AM 28.8°F-1.8°C 21.6°F-5.8°C 74% 3.0 mph N4.8 kmh N 11.0 mph17.7 kmh 30.43 in1030.5 mb 0.00 in0.0 mm 0.00 in0.0 mm 0.00 in0.0 mm
12:32 AM 28.8°F-1.8°C 21.6°F-5.8°C 74% 6.0 mph NW9.7 kmh NW 12.0 mph19.3 kmh 30.43 in1030.5 mb 0.00 in0.0 mm 0.00 in0.0 mm 0.00 in0.0 mm
12:27 AM 28.9°F-1.7°C 21.7°F-5.7°C 74% 2.0 mph W3.2 kmh W 12.0 mph19.3 kmh 30.43 in1030.5 mb 0.00 in0.0 mm 0.00 in0.0 mm 0.00 in0.0 mm
12:22 AM 29.0°F-1.7°C 21.8°F-5.7°C 74% 5.0 mph NNW8.0 kmh NNW 14.0 mph22.5 kmh 30.43 in1030.5 mb 0.00 in0.0 mm 0.00 in0.0 mm 0.00 in0.0 mm
12:17 AM 29.0°F-1.7°C 21.8°F-5.7°C 74% 4.0 mph NW6.4 kmh NW 14.0 mph22.5 kmh 30.42 in1030.1 mb 0.00 in0.0 mm 0.00 in0.0 mm 0.00 in0.0 mm
12:12 AM 29.1°F-1.6°C 21.9°F-5.6°C 74% 3.0 mph N4.8 kmh N 14.0 mph22.5 kmh 30.41 in1029.8 mb 0.00 in0.0 mm 0.00 in0.0 mm 0.00 in0.0 mm
12:07 AM 29.2°F-1.6°C 22.0°F-5.6°C 74% 8.0 mph NNW12.9 kmh NNW 14.0 mph22.5 kmh 30.41 in1029.8 mb 0.00 in0.0 mm 0.00 in0.0 mm 0.00 in0.0 mm
12:02 AM 29.2°F-1.6°C 22.3°F-5.4°C 75% 6.0 mph N9.7 kmh N 10.0 mph16.1 kmh 30.42 in1030.1 mb 0.00 in0.0 mm 0.00 in0.0 mm 0.00 in0.0 mm